^^
Station Historical Data
Daily Summary for February 11, 2018 Units:  Metric    English   Both
« Previous Day
Next Day »
Daily Weekly Monthly Yearly Custom
  High: Low: Average:
Temperature: -17.8 °C 15.9 °C 20.4 °C
Dew Point: -17.8 °C 13.1 °C 14.5 °C
Humidity: Humidity% 44% 70%
Wind Speed: 0km/h 0km/h 3.9km/h
Wind Gust: 0km/h - -
Wind- - SSE
Pressure: 0 hPa 1005.6 hPa -
Precipitation: 0 mm    
Historical Graphs
 
 
Tabular Data for February 11, 2018
Time Temperature Dew Point Pressure Wind Wind Speed Wind Gust Humidity Rainfall Rate (Hourly) solar Conditions
-17.8 °C -17.8 °C 0 hPa Calm     Humidity% 0 mm SolarRadiationWatts/m^2 W/m2 Conditions
00:03 16.8 °C 15.5 °C 1008.4 hPa SE 3.2 km/h 4.8 km/h 92% 0.25 mm 0.0 W/m2
00:09 16.8 °C 15.5 °C 1008.7 hPa ESE 3.2 km/h 4.8 km/h 92% 0.25 mm 0.0 W/m2
00:14 16.7 °C 15.2 °C 1008.7 hPa SE 1.4 km/h 6.4 km/h 91% 0.25 mm 0.0 W/m2
00:19 16.7 °C 15.2 °C 1008.7 hPa Calm   8 km/h 91% 0.25 mm 0.0 W/m2
00:24 16.6 °C 15.1 °C 1008.7 hPa SE 1.4 km/h 4.8 km/h 91% 0.25 mm 0.0 W/m2
00:29 16.6 °C 15.1 °C 1008.7 hPa Calm   1.6 km/h 91% 0.25 mm 0.0 W/m2
00:34 16.6 °C 15.1 °C 1008.7 hPa Calm     91% 0.25 mm 0.0 W/m2
00:39 16.5 °C 15 °C 1008.4 hPa Calm     91% 0.25 mm 0.0 W/m2
00:44 16.4 °C 14.9 °C 1008.4 hPa Calm     91% 0.25 mm 0.0 W/m2
00:49 16.4 °C 14.9 °C 1008.4 hPa Calm     91% 0.25 mm 0.0 W/m2
00:54 16.4 °C 15.1 °C 1008.4 hPa SE 1.4 km/h 8 km/h 92% 0.25 mm 0.0 W/m2
01:00 16.5 °C 15.2 °C 1008.4 hPa SE 1.4 km/h 8 km/h 92% 0 mm 0.0 W/m2
01:05 16.6 °C 15.3 °C 1008.4 hPa Calm   1.6 km/h 92% 0 mm 0.0 W/m2
01:10 16.6 °C 15.3 °C 1008.4 hPa SE 4.7 km/h 4.8 km/h 92% 0 mm 0.0 W/m2
01:15 16.7 °C 15.4 °C 1008.4 hPa Calm   4.8 km/h 92% 0 mm 0.0 W/m2
01:20 16.7 °C 15.4 °C 1008.4 hPa SW 1.4 km/h 8 km/h 92% 0 mm 0.0 W/m2
01:26 16.7 °C 15.2 °C 1008 hPa SSW 11.3 km/h 11.3 km/h 91% 0 mm 0.0 W/m2
01:31 16.7 °C 15.2 °C 1008 hPa SE 3.2 km/h 6.4 km/h 91% 0 mm 0.0 W/m2
01:36 16.7 °C 15.2 °C 1007.7 hPa SE 4.7 km/h 12.9 km/h 91% 0 mm 0.0 W/m2
01:41 16.6 °C 15 °C 1007.7 hPa ESE 3.2 km/h 14.5 km/h 90% 0 mm 0.0 W/m2
01:46 16.6 °C 15.1 °C 1007.7 hPa SE 4.7 km/h 12.9 km/h 91% 0 mm 0.0 W/m2
01:51 16.6 °C 15.1 °C 1007.3 hPa SSE 3.2 km/h 11.3 km/h 91% 0 mm 0.0 W/m2
01:56 16.6 °C 15.1 °C 1007.3 hPa ESE 7.9 km/h 16.1 km/h 91% 0 mm 0.0 W/m2
02:01 16.6 °C 15.1 °C 1007.3 hPa Calm   11.3 km/h 91% 0 mm 0.0 W/m2
02:06 16.6 °C 15.1 °C 1007.3 hPa Calm   12.9 km/h 91% 0 mm 0.0 W/m2
02:11 16.6 °C 15 °C 1007.3 hPa SSW 6.4 km/h 11.3 km/h 90% 0 mm 0.0 W/m2
02:17 16.5 °C 14.9 °C 1007.3 hPa South 11.1 km/h 11.3 km/h 90% 0 mm 0.0 W/m2
02:22 16.4 °C 14.8 °C 1007.3 hPa SSE 4.7 km/h 8 km/h 90% 0 mm 0.0 W/m2
02:28 16.3 °C 14.7 °C 1007 hPa SE 3.2 km/h 11.3 km/h 90% 0 mm 0.0 W/m2
02:33 16.2 °C 14.6 °C 1007 hPa SSE 7.9 km/h 11.3 km/h 90% 0 mm 0.0 W/m2
02:38 16.2 °C 14.6 °C 1007 hPa SSE 3.2 km/h 14.5 km/h 90% 0 mm 0.0 W/m2
02:43 16.1 °C 14.6 °C 1007 hPa Calm   8 km/h 91% 0 mm 0.0 W/m2
02:48 16.1 °C 14.6 °C 1007 hPa SSW 1.4 km/h 11.3 km/h 91% 0 mm 0.0 W/m2
02:53 16.1 °C 14.6 °C 1006.7 hPa SSW 4.7 km/h 9.7 km/h 91% 0 mm 0.0 W/m2
02:58 16 °C 14.5 °C 1006.7 hPa SE 3.2 km/h 12.9 km/h 91% 0 mm 0.0 W/m2
03:03 16 °C 14.5 °C 1006.7 hPa South 3.2 km/h 9.7 km/h 91% 0 mm 0.0 W/m2
03:08 16.1 °C 14.6 °C 1006.7 hPa SSE 1.4 km/h 16.1 km/h 91% 0 mm 0.0 W/m2
03:13 16.1 °C 14.6 °C 1006.7 hPa SW 1.4 km/h 14.5 km/h 91% 0 mm 0.0 W/m2
03:18 16.1 °C 14.6 °C 1006.7 hPa SSW 4.7 km/h 16.1 km/h 91% 0 mm 0.0 W/m2
03:23 16.1 °C 14.6 °C 1006.7 hPa South 6.4 km/h 20.9 km/h 91% 0 mm 0.0 W/m2
03:29 16 °C 14.5 °C 1006.3 hPa South 9.7 km/h 11.3 km/h 91% 0 mm 0.0 W/m2
03:34 16 °C 14.5 °C 1006.3 hPa SE 11.1 km/h 17.7 km/h 91% 0 mm 0.0 W/m2
03:39 16 °C 14.5 °C 1006.3 hPa SSE 4.7 km/h 6.4 km/h 91% 0 mm 0.0 W/m2
03:44 16 °C 14.5 °C 1006.3 hPa ESE 4.7 km/h 17.7 km/h 91% 0 mm 0.0 W/m2
03:49 15.9 °C 14.4 °C 1006.3 hPa SE 7.9 km/h 9.7 km/h 91% 0 mm 0.0 W/m2
03:54 15.9 °C 14.4 °C 1006.3 hPa Calm   8 km/h 91% 0 mm 0.0 W/m2
03:59 15.9 °C 14.3 °C 1006.3 hPa SSE 7.9 km/h 12.9 km/h 90% 0 mm 0.0 W/m2
04:04 16 °C 14.4 °C 1006.3 hPa SSE 3.2 km/h 12.9 km/h 90% 0 mm 0.0 W/m2
04:09 16 °C 14.4 °C 1006.3 hPa SSE 4.7 km/h 12.9 km/h 90% 0 mm 0.0 W/m2
04:15 16 °C 14.4 °C 1006.3 hPa SE 1.4 km/h 12.9 km/h 90% 0 mm 0.0 W/m2
04:20 16 °C 14.4 °C 1006.3 hPa SSW 3.2 km/h 9.7 km/h 90% 0 mm 0.0 W/m2
04:25 16.1 °C 14.5 °C 1006.3 hPa SSW 4.7 km/h 9.7 km/h 90% 0 mm 0.0 W/m2
04:30 16.1 °C 14.3 °C 1006.7 hPa SSW 1.4 km/h 6.4 km/h 89% 0 mm 0.0 W/m2
04:35 16.2 °C 14.6 °C 1006.7 hPa SSW 3.2 km/h 11.3 km/h 90% 0 mm 0.0 W/m2
04:40 16.2 °C 14.4 °C 1006.7 hPa ESE 7.9 km/h 16.1 km/h 89% 0 mm 0.0 W/m2
04:45 16.2 °C 14.4 °C 1006.7 hPa West 1.4 km/h 11.3 km/h 89% 0 mm 0.0 W/m2
04:50 16.2 °C 14.4 °C 1006.7 hPa SE 14.3 km/h 14.5 km/h 89% 0 mm 0.0 W/m2
04:55 16.2 °C 14.4 °C 1006.7 hPa East 9.7 km/h 14.5 km/h 89% 0 mm 0.0 W/m2
05:01 16.2 °C 14.4 °C 1006.7 hPa SSW 1.4 km/h 6.4 km/h 89% 0 mm 0.0 W/m2
05:06 16.2 °C 14.2 °C 1006.7 hPa SW 7.9 km/h 11.3 km/h 88% 0 mm 0.0 W/m2
05:11 16.3 °C 14.3 °C 1006.7 hPa SE 1.4 km/h 8 km/h 88% 0 mm 0.0 W/m2
05:16 16.3 °C 14.3 °C 1007 hPa Calm   4.8 km/h 88% 0 mm 0.0 W/m2
05:21 16.3 °C 14.3 °C 1006.7 hPa SSW 1.4 km/h 3.2 km/h 88% 0 mm 0.0 W/m2
05:26 16.3 °C 14.3 °C 1007 hPa SSW 3.2 km/h 4.8 km/h 88% 0 mm 0.0 W/m2
05:31 16.4 °C 14.4 °C 1007 hPa SE 3.2 km/h 6.4 km/h 88% 0 mm 0.0 W/m2
05:36 16.4 °C 14.2 °C 1007 hPa SE 1.4 km/h 3.2 km/h 87% 0 mm 0.0 W/m2
05:41 16.4 °C 14.2 °C 1007 hPa Calm     87% 0 mm 0.0 W/m2
05:46 16.4 °C 14.1 °C 1007 hPa Calm   3.2 km/h 86% 0 mm 0.0 W/m2
05:52 16.4 °C 14.1 °C 1007 hPa Calm     86% 0 mm 0.0 W/m2
05:58 16.4 °C 13.9 °C 1007.3 hPa Calm   4.8 km/h 85% 0 mm 0.0 W/m2
06:03 16.4 °C 13.9 °C 1007.3 hPa South 3.2 km/h 4.8 km/h 85% 0 mm 0.0 W/m2
06:08 16.6 °C 14.1 °C 1007.3 hPa Calm   1.6 km/h 85% 0 mm 0.0 W/m2
06:13 16.6 °C 13.9 °C 1007.3 hPa Calm   1.6 km/h 84% 0 mm 0.0 W/m2
06:18 16.6 °C 14.1 °C 1007.3 hPa Calm   3.2 km/h 85% 0 mm 0.0 W/m2
06:23 16.6 °C 13.9 °C 1007.3 hPa Calm     84% 0 mm 0.0 W/m2
06:28 16.6 °C 13.9 °C 1007.3 hPa Calm   6.4 km/h 84% 0 mm 0.0 W/m2
06:34 16.6 °C 14.1 °C 1007.3 hPa Calm     85% 0 mm 0.0 W/m2
06:39 16.6 °C 14.2 °C 1007.3 hPa Calm     86% 0 mm 0.0 W/m2
06:44 16.6 °C 14.2 °C 1007.3 hPa Calm     86% 0 mm 0.0 W/m2
06:49 16.6 °C 14.4 °C 1007.3 hPa Calm   3.2 km/h 87% 0 mm 0.0 W/m2
06:54 16.6 °C 14.4 °C 1007.7 hPa Calm     87% 0 mm 0.0 W/m2
06:59 16.5 °C 14.3 °C 1007.7 hPa Calm     87% 0 mm 7.0 W/m2
07:04 16.5 °C 14.1 °C 1007.7 hPa SE 1.4 km/h 6.4 km/h 86% 0 mm 18.0 W/m2
07:10 16.4 °C 13.7 °C 1007.7 hPa SE 6.4 km/h 11.3 km/h 84% 0 mm 30.0 W/m2
07:15 16.6 °C 13.7 °C 1007.7 hPa SE 1.4 km/h 8 km/h 83% 0 mm 37.0 W/m2
07:20 16.8 °C 13.7 °C 1007.7 hPa SE 1.4 km/h 9.7 km/h 82% 0 mm 40.0 W/m2
07:25 17 °C 13.9 °C 1007.7 hPa ESE 6.4 km/h 11.3 km/h 82% 0 mm 40.0 W/m2
07:30 17.2 °C 14.1 °C 1007.7 hPa Calm   1.6 km/h 82% 0 mm 44.0 W/m2
07:35 17.2 °C 14.1 °C 1008 hPa Calm   1.6 km/h 82% 0 mm 47.0 W/m2
07:40 17.3 °C 14 °C 1008 hPa Calm     81% 0 mm 47.0 W/m2
07:45 17.3 °C 13.8 °C 1008 hPa Calm   3.2 km/h 80% 0 mm 53.0 W/m2
07:50 17.4 °C 13.7 °C 1008 hPa ESE 1.4 km/h 3.2 km/h 79% 0 mm 62.0 W/m2
07:55 17.5 °C 13.6 °C 1008 hPa ESE 3.2 km/h 8 km/h 78% 0 mm 72.0 W/m2
08:00 17.6 °C 13.7 °C 1008 hPa East 3.2 km/h 3.2 km/h 78% 0 mm 84.0 W/m2
08:05 17.8 °C 13.9 °C 1008 hPa Calm   4.8 km/h 78% 0 mm 97.0 W/m2
08:11 17.9 °C 13.8 °C 1008.4 hPa Calm   1.6 km/h 77% 0 mm 105.0 W/m2
08:16 18 °C 13.9 °C 1008.4 hPa Calm   1.6 km/h 77% 0 mm 113.0 W/m2
08:21 18.1 °C 14 °C 1008.4 hPa ENE 3.2 km/h 4.8 km/h 77% 0 mm 125.0 W/m2
08:26 18.3 °C 13.8 °C 1008.4 hPa Calm   6.4 km/h 75% 0 mm 144.0 W/m2
08:31 18.4 °C 13.7 °C 1008.4 hPa Calm   1.6 km/h 74% 0 mm 163.0 W/m2
08:36 18.6 °C 14.1 °C 1008.4 hPa SE 3.2 km/h 4.8 km/h 75% 0 mm 188.0 W/m2
08:41 18.7 °C 13.8 °C 1008.4 hPa Calm   4.8 km/h 73% 0 mm 202.0 W/m2
08:46 18.9 °C 14 °C 1008.4 hPa ENE 3.2 km/h 6.4 km/h 73% 0 mm 213.0 W/m2
08:51 19.2 °C 14 °C 1008.7 hPa ESE 3.2 km/h 6.4 km/h 72% 0 mm 197.0 W/m2
08:57 19.3 °C 13.9 °C 1008.7 hPa Calm   6.4 km/h 71% 0 mm 185.0 W/m2
09:02 19.4 °C 14 °C 1008.4 hPa NE 3.2 km/h 6.4 km/h 71% 0 mm 197.0 W/m2
09:07 19.4 °C 13.8 °C 1008.4 hPa East 4.7 km/h 8 km/h 70% 0 mm 227.0 W/m2
09:12 19.6 °C 14 °C 1008.7 hPa NE 4.7 km/h 6.4 km/h 70% 0 mm 239.0 W/m2
09:18 19.7 °C 13.9 °C 1008.7 hPa ESE 1.4 km/h 8 km/h 69% 0 mm 237.0 W/m2
09:23 19.7 °C 14.3 °C 1008.7 hPa ESE 4.7 km/h 8 km/h 71% 0 mm 225.0 W/m2
09:28 19.7 °C 14.1 °C 1008.7 hPa Calm   11.3 km/h 70% 0 mm 237.0 W/m2
09:33 19.8 °C 14.2 °C 1008.7 hPa SE 6.4 km/h 9.7 km/h 70% 0 mm 257.0 W/m2
09:38 19.9 °C 14.3 °C 1008.7 hPa Calm   11.3 km/h 70% 0 mm 322.0 W/m2
09:43 20.1 °C 14.7 °C 1008.7 hPa NE 4.7 km/h 8 km/h 71% 0 mm 338.0 W/m2
09:48 20.3 °C 14.6 °C 1008.7 hPa ESE 1.4 km/h 6.4 km/h 70% 0 mm 353.0 W/m2
09:53 20.5 °C 14.8 °C 1008.7 hPa North 6.4 km/h 8 km/h 70% 0 mm 411.0 W/m2
09:59 20.8 °C 14.7 °C 1008.7 hPa NE 6.4 km/h 9.7 km/h 68% 0 mm 475.0 W/m2
10:04 20.9 °C 14.5 °C 1008.4 hPa East 1.4 km/h 9.7 km/h 67% 0 mm 517.0 W/m2
10:09 21.2 °C 14.6 °C 1008.4 hPa Calm   12.9 km/h 66% 0 mm 520.0 W/m2
10:14 21.5 °C 14.4 °C 1008.4 hPa NE 6.4 km/h 9.7 km/h 64% 0 mm 555.0 W/m2
10:19 21.8 °C 14.7 °C 1008.4 hPa East 7.9 km/h 14.5 km/h 64% 0 mm 531.0 W/m2
10:24 21.9 °C 14 °C 1008.4 hPa NNE 9.7 km/h 14.5 km/h 61% 0 mm 571.0 W/m2
10:29 22.2 °C 14.6 °C 1008.4 hPa NE 3.2 km/h 9.7 km/h 62% 0 mm 619.0 W/m2
10:35 22.5 °C 14.9 °C 1008.7 hPa North 11.1 km/h 11.3 km/h 62% 0 mm 831.0 W/m2
10:40 22.8 °C 14.6 °C 1008.7 hPa ENE 7.9 km/h 11.3 km/h 60% 0 mm 659.0 W/m2
10:45 22.9 °C 14.5 °C 1008.7 hPa East 9.7 km/h 14.5 km/h 59% 0 mm 626.0 W/m2
10:50 22.9 °C 14.2 °C 1008.7 hPa ENE 7.9 km/h 12.9 km/h 58% 0 mm 670.0 W/m2
10:56 22.8 °C 14.4 °C 1008.7 hPa Calm   14.5 km/h 59% 0 mm 654.0 W/m2
11:01 22.9 °C 15 °C 1008.7 hPa SSE 9.7 km/h 12.9 km/h 61% 0 mm 550.0 W/m2
11:06 22.9 °C 14.5 °C 1008.7 hPa ESE 7.9 km/h 20.9 km/h 59% 0 mm 543.0 W/m2
11:11 22.9 °C 14.5 °C 1008.7 hPa NE 14.3 km/h 17.7 km/h 59% 0 mm 531.0 W/m2
11:17 22.7 °C 14.8 °C 1008.7 hPa North 3.2 km/h 16.1 km/h 61% 0 mm 508.0 W/m2
11:22 22.4 °C 14.8 °C 1008.7 hPa NE 7.9 km/h 11.3 km/h 62% 0 mm 499.0 W/m2
11:28 22.3 °C 14.7 °C 1008.7 hPa East 17.7 km/h 17.7 km/h 62% 0 mm 519.0 W/m2
11:33 22.3 °C 14.9 °C 1008.7 hPa ENE 1.4 km/h 12.9 km/h 63% 0 mm 626.0 W/m2
11:38 22.5 °C 15.1 °C 1008.7 hPa SE 1.4 km/h 11.3 km/h 63% 0 mm 775.0 W/m2
11:43 22.8 °C 15.4 °C 1008.7 hPa ENE 4.7 km/h 8 km/h 63% 0 mm 584.0 W/m2
11:48 23.1 °C 14.9 °C 1008.7 hPa SE 4.7 km/h 8 km/h 60% 0 mm 708.0 W/m2
11:53 23.3 °C 15.1 °C 1008.7 hPa NE 11.1 km/h 17.7 km/h 60% 0 mm 1097.0 W/m2
11:58 23.7 °C 15.5 °C 1008.7 hPa SSE 6.4 km/h 12.9 km/h 60% 0 mm 1071.0 W/m2
12:03 24 °C 15.2 °C 1008.7 hPa NE 11.1 km/h 11.3 km/h 58% 0 mm 1056.0 W/m2
12:09 24.2 °C 15.4 °C 1008.7 hPa East 9.7 km/h 16.1 km/h 58% 0 mm 963.0 W/m2
12:15 24.4 °C 14.5 °C 1008.7 hPa NNE 1.4 km/h 11.3 km/h 54% 0 mm 854.0 W/m2
12:20 24.6 °C 14.7 °C 1008.7 hPa SSE 7.9 km/h 14.5 km/h 54% 0 mm 763.0 W/m2
12:25 24.7 °C 14.5 °C 1008.7 hPa East 7.9 km/h 14.5 km/h 53% 0 mm 1220.0 W/m2
12:30 24.8 °C 14.3 °C 1008.4 hPa NNE 11.1 km/h 12.9 km/h 52% 0 mm 705.0 W/m2
12:35 24.8 °C 14.3 °C 1008.4 hPa North 7.9 km/h 17.7 km/h 52% 0 mm 814.0 W/m2
12:40 24.7 °C 14.2 °C 1008.4 hPa ENE 3.2 km/h 12.9 km/h 52% 0 mm 485.0 W/m2
12:45 24.7 °C 14.2 °C 1008.4 hPa ENE 11.1 km/h 17.7 km/h 52% 0 mm 1155.0 W/m2
12:51 24.9 °C 15 °C 1008.4 hPa East 3.2 km/h 19.3 km/h 54% 0 mm 1211.0 W/m2
12:56 25.2 °C 14.6 °C 1008.4 hPa North 4.7 km/h 11.3 km/h 52% 0 mm 1206.0 W/m2
13:01 25.6 °C 15.3 °C 1008.4 hPa SSE 17.7 km/h 17.7 km/h 53% 0 mm 1229.0 W/m2
13:06 25.9 °C 15.6 °C 1008.4 hPa ESE 6.4 km/h 17.7 km/h 53% 0 mm 1187.0 W/m2
13:11 25.9 °C 15 °C 1008.4 hPa SE 4.7 km/h 12.9 km/h 51% 0 mm 1190.0 W/m2
13:16 25.9 °C 15 °C 1008.4 hPa ESE 3.2 km/h 14.5 km/h 51% 0 mm 1179.0 W/m2
13:21 25.9 °C 14.7 °C 1008.4 hPa NE 7.9 km/h 17.7 km/h 50% 0 mm 956.0 W/m2
13:26 25.9 °C 14.7 °C 1008 hPa NE 1.4 km/h 11.3 km/h 50% 0 mm 383.0 W/m2
13:31 25.8 °C 14.9 °C 1008 hPa North 7.9 km/h 22.5 km/h 51% 0 mm 302.0 W/m2
13:36 25.9 °C 14.4 °C 1008 hPa SE 7.9 km/h 24.1 km/h 49% 0 mm 1352.0 W/m2
13:42 26 °C 14.5 °C 1008 hPa NNE 7.9 km/h 11.3 km/h 49% 0 mm 341.0 W/m2
13:47 25.8 °C 14.9 °C 1008 hPa ESE 4.7 km/h 9.7 km/h 51% 0 mm 299.0 W/m2
13:52 25.6 °C 14.1 °C 1007.7 hPa NNE 6.4 km/h 16.1 km/h 49% 0 mm 294.0 W/m2
13:57 25.3 °C 14.4 °C 1007.7 hPa North 7.9 km/h 9.7 km/h 51% 0 mm 445.0 W/m2
14:02 25.2 °C 14 °C 1007.7 hPa NE 1.4 km/h 14.5 km/h 50% 0 mm 654.0 W/m2
14:07 25.3 °C 14.1 °C 1007.3 hPa ENE 4.7 km/h 9.7 km/h 50% 0 mm 334.0 W/m2
14:12 25.3 °C 14.1 °C 1007.3 hPa ENE 9.7 km/h 17.7 km/h 50% 0 mm 446.0 W/m2
14:17 25.6 °C 14.1 °C 1007.3 hPa North 4.7 km/h 14.5 km/h 49% 0 mm 1241.0 W/m2
14:22 26.1 °C 13.9 °C 1007.3 hPa NNE 13 km/h 20.9 km/h 47% 0 mm 267.0 W/m2
14:27 25.9 °C 13.7 °C 1007.3 hPa NNE 6.4 km/h 16.1 km/h 47% 0 mm 236.0 W/m2
14:33 25.7 °C 14.2 °C 1007 hPa NNW 6.4 km/h 9.7 km/h 49% 0 mm 1187.0 W/m2
14:38 25.9 °C 14.4 °C 1007 hPa East 11.1 km/h 17.7 km/h 49% 0 mm 343.0 W/m2
14:43 26.4 °C 14.8 °C 1006.7 hPa NE 11.1 km/h 14.5 km/h 49% 0 mm 1069.0 W/m2
14:48 26.7 °C 14.1 °C 1006.3 hPa Calm   8 km/h 46% 0 mm 348.0 W/m2
14:53 26.8 °C 14.2 °C 1006.3 hPa NNE 3.2 km/h 11.3 km/h 46% 0 mm 1055.0 W/m2
14:58 27.1 °C 14.8 °C 1006.3 hPa NE 11.1 km/h 16.1 km/h 47% 0 mm 1106.0 W/m2
15:03 27.3 °C 14 °C 1006.3 hPa NW 4.7 km/h 12.9 km/h 44% 0 mm 246.0 W/m2
15:08 27.3 °C 14 °C 1006.3 hPa North 6.4 km/h 17.7 km/h 44% 0 mm 299.0 W/m2
15:13 27 °C 14.1 °C 1006 hPa NNE 3.2 km/h 11.3 km/h 45% 0 mm 1106.0 W/m2
15:18 27.2 °C 14.6 °C 1006 hPa NW 24.1 km/h 25.7 km/h 46% 0 mm 272.0 W/m2
15:24 26.4 °C 14.5 °C 1006.3 hPa NNW 9.7 km/h 24.1 km/h 48% 0 mm 1085.0 W/m2
15:29 26.1 °C 14.9 °C 1006.3 hPa NNE 14.3 km/h 29 km/h 50% 0 mm 1049.0 W/m2
15:34 25.7 °C 14.8 °C 1006.3 hPa NNE 7.9 km/h 14.5 km/h 51% 0 mm 947.0 W/m2
15:39 25.7 °C 13.9 °C 1006 hPa North 14.3 km/h 19.3 km/h 48% 0 mm 891.0 W/m2
15:44 25.7 °C 13.9 °C 1006 hPa NNE 11.1 km/h 17.7 km/h 48% 0 mm 874.0 W/m2
15:49 25.9 °C 14 °C 1006.3 hPa North 11.1 km/h 11.3 km/h 48% 0 mm 849.0 W/m2
15:54 26.1 °C 14.5 °C 1006 hPa North 6.4 km/h 17.7 km/h 49% 0 mm 770.0 W/m2
15:59 26.2 °C 14.3 °C 1006 hPa NE 9.7 km/h 17.7 km/h 48% 0 mm 782.0 W/m2
16:04 26.3 °C 14.1 °C 1006 hPa NE 7.9 km/h 16.1 km/h 47% 0 mm 649.0 W/m2
16:10 26.4 °C 14.2 °C 1005.6 hPa NNW 6.4 km/h 11.3 km/h 47% 0 mm 633.0 W/m2
16:15 26.6 °C 14 °C 1005.6 hPa NE 6.4 km/h 8 km/h 46% 0 mm 694.0 W/m2
16:20 26.7 °C 14.5 °C 1005.6 hPa NW 4.7 km/h 9.7 km/h 47% 0 mm 729.0 W/m2
16:25 26.7 °C 13.8 °C 1005.6 hPa North 6.4 km/h 16.1 km/h 45% 0 mm 190.0 W/m2
16:30 26.5 °C 14.3 °C 1005.6 hPa NNW 3.2 km/h 4.8 km/h 47% 0 mm 200.0 W/m2
16:35 26.3 °C 13.8 °C 1005.6 hPa North 3.2 km/h 12.9 km/h 46% 0 mm 156.0 W/m2
16:40 26.1 °C 14.2 °C 1005.6 hPa North 6.4 km/h 11.3 km/h 48% 0 mm 357.0 W/m2
16:45 25.9 °C 14 °C 1005.6 hPa North 4.7 km/h 11.3 km/h 48% 0 mm 142.0 W/m2
16:51 25.7 °C 14.2 °C 1005.6 hPa NNW 3.2 km/h 8 km/h 49% 0 mm 153.0 W/m2
16:57 25.4 °C 14.2 °C 1005.6 hPa North 9.7 km/h 19.3 km/h 50% 0 mm 183.0 W/m2
17:02 25.1 °C 13.9 °C 1005.6 hPa NNW 7.9 km/h 12.9 km/h 50% 0 mm 165.0 W/m2
17:07 25 °C 14.2 °C 1005.6 hPa NNW 4.7 km/h 14.5 km/h 51% 0 mm 146.0 W/m2
17:12 24.9 °C 14.1 °C 1005.6 hPa North 6.4 km/h 11.3 km/h 51% 0 mm 123.0 W/m2
17:17 24.7 °C 13.9 °C 1005.6 hPa NNE 6.4 km/h 12.9 km/h 51% 0 mm 98.0 W/m2
17:22 24.6 °C 14.4 °C 1005.6 hPa NE 11.1 km/h 14.5 km/h 53% 0 mm 81.0 W/m2
17:27 24.4 °C 13.9 °C 1005.6 hPa NNE 3.2 km/h 8 km/h 52% 0 mm 67.0 W/m2
17:32 24.3 °C 14.1 °C 1005.6 hPa NNE 7.9 km/h 11.3 km/h 53% 0 mm 58.0 W/m2
17:37 24.2 °C 14 °C 1005.6 hPa North 4.7 km/h 9.7 km/h 53% 0 mm 58.0 W/m2
17:42 24.1 °C 14.2 °C 1005.6 hPa NNE 4.7 km/h 8 km/h 54% 0 mm 65.0 W/m2
17:48 24.1 °C 13.9 °C 1005.6 hPa NNE 4.7 km/h 8 km/h 53% 0 mm 77.0 W/m2
17:53 24.1 °C 14.2 °C 1005.6 hPa Calm   4.8 km/h 54% 0 mm 86.0 W/m2
17:58 24.1 °C 13.9 °C 1005.6 hPa NW 3.2 km/h 9.7 km/h 53% 0 mm 95.0 W/m2
18:03 24.1 °C 13.6 °C 1006 hPa North 3.2 km/h 4.8 km/h 52% 0 mm 93.0 W/m2
18:08 24.2 °C 13.7 °C 1006 hPa Calm   8 km/h 52% 0 mm 137.0 W/m2
18:13 24.2 °C 13.7 °C 1006 hPa North 1.4 km/h 6.4 km/h 52% 0 mm 102.0 W/m2
18:18 24.2 °C 13.1 °C 1006 hPa NW 4.7 km/h 8 km/h 50% 0 mm 77.0 W/m2
18:23 24.3 °C 13.5 °C 1006 hPa NNW 3.2 km/h 6.4 km/h 51% 0 mm 46.0 W/m2
18:28 24.3 °C 14.4 °C 1006.3 hPa West 3.2 km/h 4.8 km/h 54% 0 mm 35.0 W/m2
18:33 24 °C 15.2 °C 1006.3 hPa WSW 11.1 km/h 12.9 km/h 58% 0 mm 39.0 W/m2
18:39 23.7 °C 15.5 °C 1006.3 hPa Calm   8 km/h 60% 0 mm 42.0 W/m2
18:44 23.4 °C 16.4 °C 1006.3 hPa Calm   3.2 km/h 65% 0 mm 39.0 W/m2
18:49 23.1 °C 16.4 °C 1006.7 hPa Calm   3.2 km/h 66% 0 mm 26.0 W/m2
18:54 22.8 °C 16.4 °C 1007 hPa WNW 3.2 km/h 8 km/h 67% 0 mm 18.0 W/m2
18:59 22.6 °C 15.9 °C 1007 hPa NNW 1.4 km/h 4.8 km/h 66% 0 mm 9.0 W/m2
19:04 22.3 °C 15.9 °C 1007.3 hPa NW 1.4 km/h 6.4 km/h 67% 0 mm 9.0 W/m2
19:09 22.1 °C 15.7 °C 1007.3 hPa Calm   4.8 km/h 67% 0 mm 5.0 W/m2
19:14 21.9 °C 15.7 °C 1007.7 hPa Calm   4.8 km/h 68% 0 mm 0.0 W/m2
19:19 21.8 °C 15.6 °C 1007.7 hPa WNW 6.4 km/h 17.7 km/h 68% 0 mm 0.0 W/m2
19:25 21.5 °C 15.6 °C 1007.7 hPa WSW 1.4 km/h 9.7 km/h 69% 0 mm 0.0 W/m2
19:30 21.3 °C 15.6 °C 1007.7 hPa Calm   8 km/h 70% 0 mm 0.0 W/m2
19:35 21.1 °C 15.4 °C 1007.3 hPa West 4.7 km/h 9.7 km/h 70% 0 mm 0.0 W/m2
19:40 20.9 °C 15.4 °C 1007.7 hPa Calm   1.6 km/h 71% 0 mm 0.0 W/m2
19:45 20.9 °C 15.4 °C 1007.7 hPa NNE 9.7 km/h 11.3 km/h 71% 0 mm 0.0 W/m2
19:50 20.8 °C 15.6 °C 1008 hPa Calm   3.2 km/h 72% 0 mm 0.0 W/m2
19:55 20.8 °C 15.6 °C 1008 hPa Calm   4.8 km/h 72% 0 mm 0.0 W/m2
20:00 20.7 °C 15.3 °C 1008.4 hPa NW 3.2 km/h 6.4 km/h 71% 0 mm 0.0 W/m2
20:06 20.7 °C 15.3 °C 1008.4 hPa Calm   4.8 km/h 71% 0 mm 0.0 W/m2
20:11 20.7 °C 15.3 °C 1008.4 hPa Calm   1.6 km/h 71% 0 mm 0.0 W/m2
20:17 20.7 °C 15.3 °C 1008.4 hPa Calm     71% 0 mm 0.0 W/m2
20:22 20.7 °C 15 °C 1008.4 hPa Calm     70% 0 mm 0.0 W/m2
20:27 20.7 °C 15 °C 1008.7 hPa Calm     70% 0 mm 0.0 W/m2
20:32 20.6 °C 14.9 °C 1008.7 hPa Calm   1.6 km/h 70% 0 mm 0.0 W/m2
20:37 20.6 °C 15.2 °C 1008.7 hPa Calm     71% 0 mm 0.0 W/m2
20:42 20.6 °C 15.2 °C 1008.4 hPa Calm     71% 0 mm 0.0 W/m2
20:47 20.7 °C 15.3 °C 1008.7 hPa SSW 1.4 km/h 4.8 km/h 71% 0 mm 0.0 W/m2
20:52 20.7 °C 15.5 °C 1008.7 hPa Calm   1.6 km/h 72% 0 mm 0.0 W/m2
20:58 20.7 °C 15.5 °C 1008.7 hPa Calm   3.2 km/h 72% 0 mm 0.0 W/m2
21:03 20.7 °C 15.9 °C 1008.4 hPa Calm   3.2 km/h 74% 0 mm 0.0 W/m2
21:08 20.7 °C 15.9 °C 1008.4 hPa Calm   3.2 km/h 74% 0 mm 0.0 W/m2
21:13 20.6 °C 15.8 °C 1008.4 hPa SSE 1.4 km/h 1.6 km/h 74% 0 mm 0.0 W/m2
21:18 20.5 °C 15.5 °C 1008.4 hPa Calm   1.6 km/h 73% 0 mm 0.0 W/m2
21:23 20.4 °C 15.4 °C 1008.4 hPa Calm   1.6 km/h 73% 0 mm 0.0 W/m2
21:28 20.4 °C 15.4 °C 1008.4 hPa SE 1.4 km/h 3.2 km/h 73% 0 mm 0.0 W/m2
21:33 20.4 °C 15.6 °C 1008.4 hPa SE 1.4 km/h 3.2 km/h 74% 0 mm 0.0 W/m2
21:38 20.4 °C 15.6 °C 1008.4 hPa SE 11.1 km/h 11.3 km/h 74% 0 mm 0.0 W/m2
21:43 20.3 °C 15.5 °C 1008.4 hPa Calm   3.2 km/h 74% 0 mm 0.0 W/m2
21:49 20.2 °C 15.4 °C 1008.4 hPa Calm   8 km/h 74% 0 mm 0.0 W/m2
21:54 20.1 °C 15.3 °C 1008.7 hPa SSE 1.4 km/h 9.7 km/h 74% 0 mm 0.0 W/m2
21:59 20 °C 15 °C 1008.7 hPa Calm   3.2 km/h 73% 0 mm 0.0 W/m2
22:04 19.9 °C 15.1 °C 1008.7 hPa South 3.2 km/h 3.2 km/h 74% 0 mm 0.0 W/m2
22:09 19.9 °C 14.9 °C 1008.7 hPa SE 1.4 km/h 6.4 km/h 73% 0 mm 0.0 W/m2
22:14 19.9 °C 14.9 °C 1009 hPa Calm     73% 0 mm 0.0 W/m2
22:20 19.9 °C 14.9 °C 1009 hPa Calm   4.8 km/h 73% 0 mm 0.0 W/m2
22:26 19.9 °C 14.9 °C 1009.4 hPa SE 3.2 km/h 6.4 km/h 73% 0 mm 0.0 W/m2
22:31 19.9 °C 14.9 °C 1009.4 hPa SSE 1.4 km/h 8 km/h 73% 0 mm 0.0 W/m2
22:37 19.8 °C 14.8 °C 1009.4 hPa Calm   6.4 km/h 73% 0 mm 0.0 W/m2
22:42 19.8 °C 15 °C 1009.4 hPa Calm   1.6 km/h 74% 0 mm 0.0 W/m2
22:47 19.8 °C 14.8 °C 1009.7 hPa Calm   1.6 km/h 73% 0 mm 0.0 W/m2
22:52 19.7 °C 14.5 °C 1009.7 hPa Calm   1.6 km/h 72% 0 mm 0.0 W/m2
22:57 19.7 °C 14.7 °C 1009.7 hPa Calm     73% 0 mm 0.0 W/m2
23:03 19.7 °C 14.5 °C 1009.7 hPa Calm   4.8 km/h 72% 0 mm 0.0 W/m2
23:09 19.7 °C 14.3 °C 1009.7 hPa SW 1.4 km/h 3.2 km/h 71% 0 mm 0.0 W/m2
23:14 19.7 °C 14.3 °C 1010 hPa SSW 1.4 km/h 4.8 km/h 71% 0 mm 0.0 W/m2
23:19 19.7 °C 14.3 °C 1010 hPa SW 6.4 km/h 6.4 km/h 71% 0 mm 0.0 W/m2
23:25 19.7 °C 14.3 °C 1010 hPa Calm   3.2 km/h 71% 0 mm 0.0 W/m2
23:30 19.7 °C 14.3 °C 1010 hPa Calm   3.2 km/h 71% 0 mm 0.0 W/m2
23:35 19.7 °C 14.5 °C 1010 hPa SSE 3.2 km/h 4.8 km/h 72% 0 mm 0.0 W/m2
23:40 19.7 °C 14.5 °C 1010.4 hPa South 3.2 km/h 6.4 km/h 72% 0 mm 0.0 W/m2
23:45 19.7 °C 14.3 °C 1010.4 hPa SSW 4.7 km/h 4.8 km/h 71% 0 mm 0.0 W/m2
23:51 19.7 °C 14.1 °C 1010.4 hPa SSE 3.2 km/h 9.7 km/h 70% 0 mm 0.0 W/m2
23:56 19.7 °C 14.3 °C 1010 hPa Calm   1.6 km/h 71% 0 mm 0.0 W/m2
Olympia, Windhoek, Namibia
Compliments of Weather Underground - 3.25 mb